Terminal Aerodrome Forecast
Issued by NWS

Current Version | Previous Version | Text Only | Print | Product List | Glossary On
Versions: 1 2 3 4 5 6 7 8 9 10 11 12 13 14 15 16 17 18
000
FTUS42 KTAE 290520
TAFABY
TAF
KABY 290520Z 2906/3006 32006KT P6SM OVC080
     FM291400 08006KT P6SM SCT070
     FM291800 12005KT P6SM SCT250
     FM300200 00000KT P6SM SKC=

USA.gov is the U.S. government's official web portal to all federal, state and local government web resources and services.